Terminal Aerodrome Forecast
Issued by NWS

Home | Current Version | Previous Version | Text Only | Print | Product List | Glossary On
Versions: 1 2 3 4 5 6 7 8 9 10 11 12 13 14 15 16 17
000
FTUS45 KABQ 062300 RRA
TAFSAF
TAF
KSAF 062340Z 0700/0724 26014G22KT P6SM VCSH SCT070 BKN100
      TEMPO 0700/0702 VRB18G30KT -TSRA BKN050CB BKN100
     FM070200 29007KT P6SM SCT060 BKN100
     FM070900 36006KT P6SM SCT035 SCT090
     FM071830 22014G23KT P6SM FEW080=

USA.gov is the U.S. government's official web portal to all federal, state and local government web resources and services.